Time,TemperatureF,DewpointF,PressureIn,WindDirection,WindDirectionDegrees,WindSpeedMPH,WindSpeedGustMPH,Humidity,HourlyPrecipIn,Conditions,Clouds,dailyrainin,SoftwareType,DateUTC
2013-05-05 00:03:00,52.2,39.9,29.83,East,86,3.0,5.0,63,0.00,CLR,CLR,0.08,WeatherDisplay:10.37,2013-05-05 04:03:00,
2013-05-05 00:18:00,52.0,39.8,29.83,East,90,2.0,6.0,63,0.00,CLR,CLR,0.08,WeatherDisplay:10.37,2013-05-05 04:18:00,
2013-05-05 00:33:00,51.8,40.8,29.83,East,92,3.0,5.0,66,0.04,CLR,CLR,0.12,WeatherDisplay:10.37,2013-05-05 04:33:00,
2013-05-05 00:48:00,51.8,41.6,29.83,ENE,74,2.0,4.0,68,0.04,CLR,CLR,0.12,WeatherDisplay:10.37,2013-05-05 04:48:00,
2013-05-05 01:03:00,51.6,42.2,29.83,East,79,2.0,4.0,70,0.08,RA,RA,0.16,WeatherDisplay:10.37,2013-05-05 05:03:00,
2013-05-05 01:18:00,51.6,42.5,29.86,East,88,3.0,5.0,71,0.12,RA,RA,0.20,WeatherDisplay:10.37,2013-05-05 05:18:00,
2013-05-05 01:33:00,51.4,42.7,29.86,ENE,68,2.0,5.0,72,0.08,CLR,CLR,0.20,WeatherDisplay:10.37,2013-05-05 05:33:00,
2013-05-05 01:48:00,51.3,42.5,29.83,East,87,3.0,5.0,72,0.16,RA,RA,0.28,WeatherDisplay:10.37,2013-05-05 05:48:00,
2013-05-05 02:03:00,51.3,43.3,29.86,East,86,3.0,4.0,74,0.12,CLR,CLR,0.28,WeatherDisplay:10.37,2013-05-05 06:03:00,
2013-05-05 02:18:00,51.3,43.6,29.86,East,95,2.0,4.0,75,0.08,CLR,CLR,0.28,WeatherDisplay:10.37,2013-05-05 06:18:00,
2013-05-05 02:19:00,51.4,46.8,29.86,ENE,71,3.0,4.0,84,0.08,-RA,-RA,0.28,WeatherDisplay:10.37,2013-05-05 06:19:00,
2013-05-05 02:20:00,51.4,46.8,29.86,ENE,71,3.0,0.0,84,0.08,-RA,-RA,0.28,WeatherDisplay:10.37,2013-05-05 06:20:00,
2013-05-05 02:21:00,51.4,46.8,29.86,ENE,71,3.0,0.0,84,0.08,-RA,-RA,0.28,WeatherDisplay:10.37,2013-05-05 06:21:00,
2013-05-05 02:22:00,51.4,46.8,29.86,ENE,71,3.0,0.0,84,0.08,-RA,-RA,0.28,WeatherDisplay:10.37,2013-05-05 06:22:00,
2013-05-05 02:23:00,51.4,46.8,29.86,ENE,71,3.0,0.0,84,0.08,-RA,-RA,0.28,WeatherDisplay:10.37,2013-05-05 06:23:00,
2013-05-05 02:24:00,51.4,46.8,29.86,ENE,71,3.0,0.0,84,0.08,-RA,-RA,0.28,WeatherDisplay:10.37,2013-05-05 06:24:00,
2013-05-05 02:25:00,51.4,46.8,29.86,ENE,71,3.0,0.0,84,0.08,-RA,-RA,0.28,WeatherDisplay:10.37,2013-05-05 06:25:00,
2013-05-05 02:26:00,51.4,46.8,29.86,ENE,71,3.0,0.0,84,0.08,-RA,-RA,0.28,WeatherDisplay:10.37,2013-05-05 06:26:00,
2013-05-05 02:27:00,51.4,46.8,29.86,ENE,71,3.0,0.0,84,0.08,-RA,-RA,0.28,WeatherDisplay:10.37,2013-05-05 06:27:00,
2013-05-05 02:28:00,51.4,46.8,29.86,ENE,71,3.0,0.0,84,0.08,-RA,-RA,0.28,WeatherDisplay:10.37,2013-05-05 06:28:00,
2013-05-05 02:29:00,51.4,46.8,29.86,ENE,71,3.0,0.0,84,0.08,-RA,-RA,0.28,WeatherDisplay:10.37,2013-05-05 06:29:00,
2013-05-05 02:30:00,51.4,46.8,29.86,ENE,71,3.0,0.0,84,0.08,-RA,-RA,0.28,WeatherDisplay:10.37,2013-05-05 06:30:00,
2013-05-05 02:31:00,51.4,46.8,29.86,ENE,71,3.0,0.0,84,0.08,-RA,-RA,0.28,WeatherDisplay:10.37,2013-05-05 06:31:00,
2013-05-05 02:32:00,51.4,46.8,29.86,ENE,71,3.0,0.0,84,0.08,-RA,-RA,0.28,WeatherDisplay:10.37,2013-05-05 06:32:00,
2013-05-05 02:33:00,51.4,46.8,29.86,ENE,71,3.0,0.0,84,0.08,-RA,-RA,0.28,WeatherDisplay:10.37,2013-05-05 06:33:00,
2013-05-05 07:33:00,51.4,46.8,29.86,ENE,68,6.3,6.3,84,0.08,-RA,,0.28,WeatherDisplay:10.37,2013-05-05 11:33:00,
2013-05-05 07:38:00,51.4,46.8,29.86,ENE,68,4.6,4.6,84,0.08,-RA,,0.28,WeatherDisplay:10.37,2013-05-05 11:38:00,
2013-05-05 07:43:00,51.4,46.8,29.86,East,90,4.6,4.6,84,0.04,-RA,,0.28,WeatherDisplay:10.37,2013-05-05 11:43:00,
2013-05-05 07:48:00,51.4,46.8,29.86,East,90,2.4,2.4,84,0.04,-RA,,0.28,WeatherDisplay:10.37,2013-05-05 11:48:00,
2013-05-05 07:53:00,51.4,46.8,29.86,East,90,2.3,2.4,84,0.00,-RA,,0.28,WeatherDisplay:10.37,2013-05-05 11:53:00,
2013-05-05 07:58:00,51.4,46.8,29.86,East,90,3.8,3.8,84,0.00,-RA,,0.28,WeatherDisplay:10.37,2013-05-05 11:58:00,
2013-05-05 08:03:00,51.4,46.8,29.86,NNE,22,4.6,4.6,84,0.00,-RA,,0.28,WeatherDisplay:10.37,2013-05-05 12:03:00,
2013-05-05 08:08:00,51.6,46.9,29.86,ENE,68,3.5,3.5,84,0.00,-RA,,0.28,WeatherDisplay:10.37,2013-05-05 12:08:00,
2013-05-05 08:13:00,51.6,46.9,29.86,East,90,2.4,2.4,84,0.05,-RA,,0.33,WeatherDisplay:10.37,2013-05-05 12:13:00,
2013-05-05 08:18:00,51.8,47.1,29.86,South,180,2.3,2.3,84,0.05,-RA,,0.33,WeatherDisplay:10.37,2013-05-05 12:18:00,
2013-05-05 08:23:00,52.0,47.3,29.86,East,90,4.6,4.6,84,0.05,-RA,,0.33,WeatherDisplay:10.37,2013-05-05 12:23:00,
2013-05-05 08:28:00,52.5,47.8,29.86,East,90,4.6,4.6,84,0.05,-RA,,0.33,WeatherDisplay:10.37,2013-05-05 12:28:00,
2013-05-05 08:33:00,52.5,47.8,29.86,East,90,4.6,4.6,84,0.05,-RA,,0.33,WeatherDisplay:10.37,2013-05-05 12:33:00,
2013-05-05 08:38:00,52.7,48.0,29.86,NE,45,4.6,4.6,84,0.05,-RA,,0.33,WeatherDisplay:10.37,2013-05-05 12:38:00,
2013-05-05 08:43:00,52.7,48.0,29.86,NE,45,3.5,3.5,84,0.05,-RA,,0.33,WeatherDisplay:10.37,2013-05-05 12:43:00,
2013-05-05 08:48:00,52.9,48.2,29.86,NE,45,3.5,3.5,84,0.05,-RA,,0.33,WeatherDisplay:10.37,2013-05-05 12:48:00,
2013-05-05 08:53:00,52.9,48.2,29.86,East,90,3.5,3.5,84,0.05,-RA,,0.33,WeatherDisplay:10.37,2013-05-05 12:53:00,
2013-05-05 08:58:00,52.9,48.2,29.86,East,90,5.8,5.8,84,0.05,-RA,,0.33,WeatherDisplay:10.37,2013-05-05 12:58:00,
2013-05-05 09:03:00,52.9,48.2,29.89,East,90,4.6,4.6,84,0.05,OVC,,0.33,WeatherDisplay:10.37,2013-05-05 13:03:00,
2013-05-05 09:08:00,52.9,48.2,29.89,East,90,4.6,4.6,84,0.05,OVC,,0.33,WeatherDisplay:10.37,2013-05-05 13:08:00,
2013-05-05 09:13:00,52.9,48.2,29.89,East,90,4.6,4.6,84,0.00,OVC,,0.33,WeatherDisplay:10.37,2013-05-05 13:13:00,
2013-05-05 09:18:00,52.9,48.2,29.86,NE,45,5.4,5.4,84,0.00,OVC,,0.33,WeatherDisplay:10.37,2013-05-05 13:18:00,
2013-05-05 09:23:00,52.9,48.2,29.86,NE,45,6.0,6.0,84,0.00,OVC,,0.33,WeatherDisplay:10.37,2013-05-05 13:23:00,
2013-05-05 09:28:00,53.1,48.4,29.86,East,90,3.5,3.5,84,0.00,OVC,,0.33,WeatherDisplay:10.37,2013-05-05 13:28:00,
2013-05-05 09:33:00,53.2,48.5,29.86,East,90,3.8,3.8,84,0.00,OVC,,0.33,WeatherDisplay:10.37,2013-05-05 13:33:00,
2013-05-05 09:38:00,53.6,48.9,29.86,East,90,3.5,3.5,84,0.00,OVC,,0.33,WeatherDisplay:10.37,2013-05-05 13:38:00,
2013-05-05 09:43:00,54.0,49.2,29.86,NE,45,3.6,3.6,84,0.00,OVC,,0.33,WeatherDisplay:10.37,2013-05-05 13:43:00,
2013-05-05 09:48:00,54.0,49.2,29.86,East,90,3.5,3.5,84,0.00,OVC,,0.33,WeatherDisplay:10.37,2013-05-05 13:48:00,
2013-05-05 09:53:00,54.3,49.6,29.86,East,90,5.8,5.8,84,0.00,OVC,,0.33,WeatherDisplay:10.37,2013-05-05 13:53:00,
2013-05-05 09:58:00,54.7,49.9,29.86,East,90,3.6,3.6,84,0.00,OVC,,0.33,WeatherDisplay:10.37,2013-05-05 13:58:00,
2013-05-05 10:03:00,54.7,49.9,29.86,East,90,3.6,3.6,84,0.00,-RA,,0.33,WeatherDisplay:10.37,2013-05-05 14:03:00,
2013-05-05 10:08:00,54.7,54.7,29.86,SW,225,5.8,5.8,100,0.00,-RA,,0.33,WeatherDisplay:10.37,2013-05-05 14:08:00,
2013-05-05 10:13:00,54.7,54.4,29.86,East,90,5.8,5.8,99,0.00,-RA,,0.33,WeatherDisplay:10.37,2013-05-05 14:13:00,
2013-05-05 10:18:00,54.7,54.4,29.86,East,90,4.6,4.6,99,0.00,-RA,,0.33,WeatherDisplay:10.37,2013-05-05 14:18:00,
2013-05-05 10:23:00,54.7,54.1,29.86,ENE,68,4.6,4.6,98,0.00,-RA,,0.33,WeatherDisplay:10.37,2013-05-05 14:23:00,
2013-05-05 10:28:00,54.9,54.6,29.86,East,90,3.5,3.5,99,0.00,-RA,,0.33,WeatherDisplay:10.37,2013-05-05 14:28:00,
2013-05-05 10:33:00,54.5,53.7,29.86,East,90,4.6,4.6,97,0.00,OVC,,0.33,WeatherDisplay:10.37,2013-05-05 14:33:00,
2013-05-05 10:38:00,54.3,53.5,29.86,SE,135,3.5,3.5,97,0.00,OVC,,0.33,WeatherDisplay:10.37,2013-05-05 14:38:00,
2013-05-05 10:43:00,54.3,53.8,29.86,East,90,4.6,4.6,98,0.00,OVC,,0.33,WeatherDisplay:10.37,2013-05-05 14:43:00,
2013-05-05 10:48:00,54.3,53.8,29.86,ENE,68,3.5,3.5,98,0.00,OVC,,0.33,WeatherDisplay:10.37,2013-05-05 14:48:00,
2013-05-05 10:53:00,54.3,54.3,29.86,SE,135,2.9,2.9,100,0.00,OVC,,0.33,WeatherDisplay:10.37,2013-05-05 14:53:00,
2013-05-05 10:58:00,54.3,54.3,29.86,East,90,5.8,5.8,100,0.00,OVC,,0.33,WeatherDisplay:10.37,2013-05-05 14:58:00,
2013-05-05 11:03:00,54.5,54.5,29.86,SSE,158,5.8,5.8,100,0.00,OVC,,0.33,WeatherDisplay:10.37,2013-05-05 15:03:00,
2013-05-05 11:08:00,54.7,54.7,29.86,East,90,3.5,3.5,100,0.00,OVC,,0.33,WeatherDisplay:10.37,2013-05-05 15:08:00,
2013-05-05 11:13:00,54.9,54.9,29.86,ENE,68,3.5,3.5,100,0.00,OVC,,0.33,WeatherDisplay:10.37,2013-05-05 15:13:00,
2013-05-05 11:18:00,55.0,55.0,29.86,East,90,2.9,2.9,100,0.00,-RA,,0.33,WeatherDisplay:10.37,2013-05-05 15:18:00,
2013-05-05 11:23:00,55.4,55.4,29.86,ENE,68,2.4,2.4,100,0.00,-RA,,0.33,WeatherDisplay:10.37,2013-05-05 15:23:00,
2013-05-05 11:28:00,55.8,55.8,29.86,NE,45,2.3,2.3,100,0.00,-RA,,0.33,WeatherDisplay:10.37,2013-05-05 15:28:00,
2013-05-05 11:33:00,55.9,55.7,29.86,East,90,3.5,3.5,99,0.00,-RA,,0.33,WeatherDisplay:10.37,2013-05-05 15:33:00,
2013-05-05 11:38:00,56.1,55.8,29.86,ENE,68,3.6,3.6,99,0.00,-RA,,0.33,WeatherDisplay:10.37,2013-05-05 15:38:00,
2013-05-05 11:43:00,55.9,54.8,29.86,ENE,68,4.6,4.6,96,0.00,-RA,,0.33,WeatherDisplay:10.37,2013-05-05 15:43:00,
2013-05-05 11:48:00,55.6,53.6,29.86,NE,45,5.8,5.8,93,0.00,-RA,,0.33,WeatherDisplay:10.37,2013-05-05 15:48:00,
2013-05-05 11:54:00,55.6,53.9,29.86,East,90,3.1,3.1,94,0.00,-RA,,0.33,WeatherDisplay:10.37,2013-05-05 15:54:00,
2013-05-05 11:59:00,55.4,53.7,29.86,East,90,2.9,2.9,94,0.00,-RA,,0.33,WeatherDisplay:10.37,2013-05-05 15:59:00,
2013-05-05 12:03:00,55.4,53.4,29.86,East,90,4.6,4.6,93,0.00,OVC,,0.33,WeatherDisplay:10.37,2013-05-05 16:03:00,
2013-05-05 12:08:00,55.6,53.9,29.86,South,180,3.5,3.5,94,0.00,OVC,,0.33,WeatherDisplay:10.37,2013-05-05 16:08:00,
2013-05-05 12:14:00,55.6,53.9,29.86,East,90,4.6,4.6,94,0.00,OVC,,0.33,WeatherDisplay:10.37,2013-05-05 16:14:00,
2013-05-05 12:19:00,55.8,54.6,29.89,East,90,2.3,2.3,96,0.00,OVC,,0.33,WeatherDisplay:10.37,2013-05-05 16:19:00,
2013-05-05 12:24:00,55.9,54.2,29.89,South,180,4.6,4.6,94,0.00,OVC,,0.33,WeatherDisplay:10.37,2013-05-05 16:24:00,
2013-05-05 12:29:00,56.1,54.4,29.89,East,90,3.5,3.5,94,0.00,OVC,,0.33,WeatherDisplay:10.37,2013-05-05 16:29:00,
2013-05-05 12:34:00,56.8,55.7,29.86,SE,135,4.0,4.0,96,0.00,OVC,,0.33,WeatherDisplay:10.37,2013-05-05 16:34:00,
2013-05-05 12:39:00,57.2,55.5,29.86,East,90,3.1,3.1,94,0.00,OVC,,0.33,WeatherDisplay:10.37,2013-05-05 16:39:00,
2013-05-05 12:44:00,57.6,55.6,29.86,East,90,2.3,2.3,93,0.00,OVC,,0.33,WeatherDisplay:10.37,2013-05-05 16:44:00,
2013-05-05 12:49:00,57.4,55.1,29.86,East,90,3.5,3.5,92,0.00,OVC,,0.33,WeatherDisplay:10.37,2013-05-05 16:49:00,
2013-05-05 12:54:00,57.4,54.8,29.86,East,90,3.5,3.5,91,0.00,OVC,,0.33,WeatherDisplay:10.37,2013-05-05 16:54:00,
2013-05-05 12:59:00,57.4,54.8,29.86,NE,45,3.5,3.5,91,0.00,OVC,,0.33,WeatherDisplay:10.37,2013-05-05 16:59:00,
2013-05-05 13:04:00,57.2,54.0,29.86,East,90,3.5,3.5,89,0.00,-RA,,0.33,WeatherDisplay:10.37,2013-05-05 17:04:00,
2013-05-05 13:09:00,57.2,53.7,29.86,ENE,68,3.6,3.6,88,0.00,-RA,,0.33,WeatherDisplay:10.37,2013-05-05 17:09:00,
2013-05-05 13:14:00,57.2,54.0,29.86,East,90,2.9,2.9,89,0.00,-RA,,0.33,WeatherDisplay:10.37,2013-05-05 17:14:00,
2013-05-05 13:19:00,57.4,54.8,29.86,East,90,2.3,2.3,91,0.00,OVC,,0.33,WeatherDisplay:10.37,2013-05-05 17:19:00,
2013-05-05 13:24:00,57.0,53.2,29.86,NE,45,3.5,3.5,87,0.00,OVC,,0.33,WeatherDisplay:10.37,2013-05-05 17:24:00,
2013-05-05 13:29:00,56.8,53.6,29.86,East,90,2.6,2.6,89,0.00,OVC,,0.33,WeatherDisplay:10.37,2013-05-05 17:29:00,
2013-05-05 13:34:00,56.8,53.6,29.86,NE,45,2.9,2.9,89,0.00,OVC,,0.33,WeatherDisplay:10.37,2013-05-05 17:34:00,
2013-05-05 13:39:00,56.7,54.1,29.86,East,90,2.3,2.3,91,0.00,OVC,,0.33,WeatherDisplay:10.37,2013-05-05 17:39:00,
2013-05-05 13:45:00,56.5,53.9,29.86,ENE,68,6.2,6.2,91,0.00,OVC,,0.33,WeatherDisplay:10.37,2013-05-05 17:45:00,
2013-05-05 13:50:00,56.3,53.7,29.86,East,90,2.3,2.3,91,0.00,OVC,,0.33,WeatherDisplay:10.37,2013-05-05 17:50:00,
2013-05-05 13:55:00,56.3,54.0,29.86,NE,45,2.9,2.9,92,0.00,OVC,,0.33,WeatherDisplay:10.37,2013-05-05 17:55:00,
2013-05-05 14:00:00,56.5,54.5,29.86,East,90,2.3,2.3,93,0.00,OVC,,0.33,WeatherDisplay:10.37,2013-05-05 18:00:00,
2013-05-05 14:05:00,56.5,54.5,29.86,SW,225,5.8,5.8,93,0.00,-RA,,0.33,WeatherDisplay:10.37,2013-05-05 18:05:00,
2013-05-05 14:10:00,56.5,54.5,29.86,East,90,3.5,3.5,93,0.00,-RA,,0.33,WeatherDisplay:10.37,2013-05-05 18:10:00,
2013-05-05 14:15:00,56.8,55.1,29.86,East,90,2.3,2.3,94,0.00,-RA,,0.33,WeatherDisplay:10.37,2013-05-05 18:15:00,
2013-05-05 14:20:00,57.4,55.7,29.86,East,90,4.6,4.6,94,0.00,-RA,,0.33,WeatherDisplay:10.37,2013-05-05 18:20:00,
2013-05-05 14:25:00,57.7,56.0,29.86,East,90,2.4,2.4,94,0.00,-RA,,0.33,WeatherDisplay:10.37,2013-05-05 18:25:00,
2013-05-05 14:31:00,57.4,55.1,29.86,South,180,3.8,3.8,92,0.00,-RA,,0.33,WeatherDisplay:10.37,2013-05-05 18:31:00,
2013-05-05 14:36:00,57.0,54.7,29.86,NE,45,4.3,4.3,92,0.00,-RA,,0.33,WeatherDisplay:10.37,2013-05-05 18:36:00,
2013-05-05 14:41:00,56.7,54.4,29.86,South,180,3.5,3.5,92,0.00,-RA,,0.33,WeatherDisplay:10.37,2013-05-05 18:41:00,
2013-05-05 14:46:00,56.7,54.7,29.86,SE,135,4.6,4.6,93,0.00,-RA,,0.33,WeatherDisplay:10.37,2013-05-05 18:46:00,
2013-05-05 14:51:00,56.5,54.2,29.86,SE,135,2.3,2.9,92,0.00,-RA,,0.33,WeatherDisplay:10.37,2013-05-05 18:51:00,
2013-05-05 14:56:00,56.8,54.8,29.86,SE,135,1.4,1.4,93,0.00,-RA,,0.33,WeatherDisplay:10.37,2013-05-05 18:56:00,
2013-05-05 15:01:00,57.0,55.0,29.86,NNE,22,3.3,3.3,93,0.00,-RA,,0.33,WeatherDisplay:10.37,2013-05-05 19:01:00,
2013-05-05 15:06:00,57.2,54.9,29.86,East,90,3.5,3.5,92,0.00,-RA,,0.33,WeatherDisplay:10.37,2013-05-05 19:06:00,
2013-05-05 15:11:00,56.8,54.5,29.86,East,90,5.9,5.9,92,0.00,-RA,,0.33,WeatherDisplay:10.37,2013-05-05 19:11:00,
2013-05-05 15:16:00,57.0,54.4,29.86,NW,315,4.0,4.0,91,0.00,-RA,,0.33,WeatherDisplay:10.37,2013-05-05 19:16:00,
2013-05-05 15:21:00,57.2,54.0,29.83,East,90,4.6,4.6,89,0.00,-RA,,0.33,WeatherDisplay:10.37,2013-05-05 19:21:00,
2013-05-05 15:26:00,57.4,52.6,29.83,SE,135,8.1,8.1,84,0.00,-RA,,0.33,WeatherDisplay:10.37,2013-05-05 19:26:00,
2013-05-05 15:31:00,57.7,53.3,29.83,South,180,4.3,4.3,85,0.00,OVC,,0.33,WeatherDisplay:10.37,2013-05-05 19:31:00,
2013-05-05 15:36:00,57.6,52.8,29.86,East,90,3.8,3.8,84,0.00,OVC,,0.33,WeatherDisplay:10.37,2013-05-05 19:36:00,
2013-05-05 15:41:00,57.9,52.5,29.86,East,90,4.0,4.0,82,0.00,OVC,,0.33,WeatherDisplay:10.37,2013-05-05 19:41:00,
2013-05-05 15:46:00,57.6,51.1,29.86,East,90,5.8,5.8,79,0.00,OVC,,0.33,WeatherDisplay:10.37,2013-05-05 19:46:00,
2013-05-05 15:51:00,57.6,51.1,29.86,NE,45,5.8,5.8,79,0.00,OVC,,0.33,WeatherDisplay:10.37,2013-05-05 19:51:00,
2013-05-05 15:56:00,57.2,50.7,29.86,East,90,3.5,3.5,79,0.00,OVC,,0.33,WeatherDisplay:10.37,2013-05-05 19:56:00,
2013-05-05 16:01:00,57.0,50.9,29.86,East,90,4.9,4.9,80,0.00,OVC,,0.33,WeatherDisplay:10.37,2013-05-05 20:01:00,
2013-05-05 16:06:00,56.7,50.6,29.86,East,90,4.6,4.6,80,0.00,OVC,,0.33,WeatherDisplay:10.37,2013-05-05 20:06:00,
2013-05-05 16:11:00,56.7,50.6,29.86,East,90,3.5,3.5,80,0.00,OVC,,0.33,WeatherDisplay:10.37,2013-05-05 20:11:00,
2013-05-05 16:16:00,56.5,51.1,29.86,East,90,4.6,4.6,82,0.00,OVC,,0.33,WeatherDisplay:10.37,2013-05-05 20:16:00,
2013-05-05 16:21:00,56.1,50.7,29.86,East,90,3.5,3.5,82,0.00,OVC,,0.33,WeatherDisplay:10.37,2013-05-05 20:21:00,
2013-05-05 16:26:00,55.8,51.0,29.86,East,90,4.6,4.6,84,0.00,OVC,,0.33,WeatherDisplay:10.37,2013-05-05 20:26:00,
2013-05-05 16:31:00,55.6,50.8,29.86,East,90,4.6,4.6,84,0.00,OVC,,0.33,WeatherDisplay:10.37,2013-05-05 20:31:00,
2013-05-05 16:36:00,55.2,50.8,29.86,NE,45,5.8,5.8,85,0.00,OVC,,0.33,WeatherDisplay:10.37,2013-05-05 20:36:00,
2013-05-05 16:41:00,55.0,50.6,29.86,East,90,3.5,3.5,85,0.00,OVC,,0.33,WeatherDisplay:10.37,2013-05-05 20:41:00,
2013-05-05 16:46:00,55.0,51.9,29.86,East,90,3.6,3.6,89,0.00,OVC,,0.33,WeatherDisplay:10.37,2013-05-05 20:46:00,
2013-05-05 16:51:00,54.9,52.6,29.83,North,0,5.8,5.8,92,0.00,OVC,,0.33,WeatherDisplay:10.37,2013-05-05 20:51:00,
2013-05-05 16:56:00,54.7,52.4,29.83,East,90,4.3,4.3,92,0.00,OVC,,0.33,WeatherDisplay:10.37,2013-05-05 20:56:00,
2013-05-05 17:01:00,54.7,52.7,29.83,North,0,5.8,5.8,93,0.00,OVC,,0.33,WeatherDisplay:10.37,2013-05-05 21:01:00,
2013-05-05 17:06:00,54.7,52.7,29.83,East,90,4.6,4.6,93,0.00,OVC,,0.33,WeatherDisplay:10.37,2013-05-05 21:06:00,
2013-05-05 17:11:00,54.5,52.5,29.83,SE,135,4.6,4.6,93,0.00,OVC,,0.33,WeatherDisplay:10.37,2013-05-05 21:11:00,
2013-05-05 17:16:00,54.7,52.7,29.83,East,90,2.4,2.4,93,0.00,-DZ,,0.33,WeatherDisplay:10.37,2013-05-05 21:16:00,
2013-05-05 17:21:00,55.0,53.3,29.83,East,90,3.5,3.5,94,0.00,-DZ,,0.33,WeatherDisplay:10.37,2013-05-05 21:21:00,
2013-05-05 17:26:00,55.2,53.2,29.83,NE,45,3.6,3.6,93,0.00,-DZ,,0.33,WeatherDisplay:10.37,2013-05-05 21:26:00,
2013-05-05 17:31:00,54.9,52.9,29.83,East,90,4.6,4.6,93,0.00,OVC,,0.33,WeatherDisplay:10.37,2013-05-05 21:31:00,
2013-05-05 17:36:00,54.5,52.5,29.83,East,90,4.6,4.6,93,0.00,OVC,,0.33,WeatherDisplay:10.37,2013-05-05 21:36:00,
2013-05-05 17:41:00,54.1,52.2,29.83,East,90,3.5,3.5,93,0.00,OVC,,0.33,WeatherDisplay:10.37,2013-05-05 21:41:00,
2013-05-05 17:46:00,54.0,52.0,29.83,NE,45,2.3,2.3,93,0.00,OVC,,0.33,WeatherDisplay:10.37,2013-05-05 21:46:00,
2013-05-05 17:51:00,53.6,51.6,29.83,East,90,4.6,4.6,93,0.00,OVC,,0.33,WeatherDisplay:10.37,2013-05-05 21:51:00,
2013-05-05 17:56:00,53.2,51.6,29.83,NNE,22,8.1,8.1,94,0.00,OVC,,0.33,WeatherDisplay:10.37,2013-05-05 21:56:00,
2013-05-05 18:01:00,53.2,51.6,29.83,North,0,2.4,2.4,94,0.00,OVC,,0.33,WeatherDisplay:10.37,2013-05-05 22:01:00,
2013-05-05 18:05:00,53.1,51.4,29.83,East,90,2.3,2.3,94,0.04,RA,,0.37,WeatherDisplay:10.37,2013-05-05 22:05:00,
2013-05-05 18:10:00,52.9,51.8,29.83,NE,45,5.8,5.8,96,0.04,RA,,0.37,WeatherDisplay:10.37,2013-05-05 22:10:00,
2013-05-05 18:15:00,52.5,51.4,29.83,East,90,2.4,3.3,96,0.04,OVC,,0.37,WeatherDisplay:10.37,2013-05-05 22:15:00,
2013-05-05 18:20:00,52.3,51.2,29.86,SW,225,2.3,2.3,96,0.04,OVC,,0.37,WeatherDisplay:10.37,2013-05-05 22:20:00,
2013-05-05 18:25:00,52.0,51.2,29.86,NE,45,6.4,6.4,97,0.04,OVC,,0.37,WeatherDisplay:10.37,2013-05-05 22:25:00,
2013-05-05 18:30:00,52.0,51.4,29.86,East,90,4.3,4.3,98,0.04,OVC,,0.37,WeatherDisplay:10.37,2013-05-05 22:30:00,
2013-05-05 18:35:00,52.0,51.4,29.83,East,90,2.6,2.6,98,0.04,OVC,,0.37,WeatherDisplay:10.37,2013-05-05 22:35:00,
2013-05-05 18:40:00,51.6,51.3,29.83,NE,45,5.4,5.4,99,0.04,OVC,,0.37,WeatherDisplay:10.37,2013-05-05 22:40:00,
2013-05-05 18:45:00,52.0,52.0,29.83,East,90,4.6,4.6,100,0.04,OVC,,0.37,WeatherDisplay:10.37,2013-05-05 22:45:00,
2013-05-05 18:48:00,50.5,36.7,29.83,ENE,64,1.0,2.0,59,0.00,CLR,CLR,0.00,WeatherDisplay:10.37,2013-05-05 22:48:00,
2013-05-05 18:50:00,52.0,51.7,29.83,East,90,2.3,2.3,99,0.04,OVC,,0.37,WeatherDisplay:10.37,2013-05-05 22:50:00,
2013-05-05 18:55:00,52.0,52.0,29.83,East,90,2.3,2.3,100,0.04,OVC,,0.37,WeatherDisplay:10.37,2013-05-05 22:55:00,
2013-05-05 19:00:00,52.0,51.7,29.83,East,90,2.3,2.3,99,0.04,OVC,,0.37,WeatherDisplay:10.37,2013-05-05 23:00:00,
2013-05-05 19:03:00,50.5,38.4,29.83,ENE,69,1.0,3.0,63,0.00,CLR,CLR,0.00,WeatherDisplay:10.37,2013-05-05 23:03:00,
2013-05-05 19:05:00,52.0,52.0,29.83,South,180,2.3,2.3,100,0.00,OVC,,0.37,WeatherDisplay:10.37,2013-05-05 23:05:00,
2013-05-05 19:10:00,51.8,51.5,29.83,NNW,338,2.6,2.6,99,0.00,OVC,,0.37,WeatherDisplay:10.37,2013-05-05 23:10:00,
2013-05-05 19:15:00,51.6,51.6,29.83,East,90,2.3,2.3,100,0.00,OVC,,0.37,WeatherDisplay:10.37,2013-05-05 23:15:00,
2013-05-05 19:18:00,50.7,38.2,29.83,ENE,78,0.0,2.0,62,0.04,RA,RA,0.04,WeatherDisplay:10.37,2013-05-05 23:18:00,
2013-05-05 19:20:00,51.4,51.4,29.83,East,90,3.5,3.5,100,0.00,-RA,,0.37,WeatherDisplay:10.37,2013-05-05 23:20:00,
2013-05-05 19:25:00,51.3,51.0,29.83,East,90,4.6,4.6,99,0.00,-RA,,0.37,WeatherDisplay:10.37,2013-05-05 23:25:00,
2013-05-05 19:30:00,51.3,51.3,29.83,East,90,3.5,3.5,100,0.00,-RA,,0.37,WeatherDisplay:10.37,2013-05-05 23:30:00,
2013-05-05 19:33:00,50.7,39.4,29.83,NE,41,1.0,2.0,65,0.04,CLR,CLR,0.04,WeatherDisplay:10.37,2013-05-05 23:33:00,
2013-05-05 19:35:00,51.1,51.1,29.86,NNE,22,3.8,3.8,100,0.00,OVC,,0.37,WeatherDisplay:10.37,2013-05-05 23:35:00,
2013-05-05 19:40:00,51.1,51.1,29.86,East,90,2.3,2.3,100,0.00,OVC,,0.37,WeatherDisplay:10.37,2013-05-05 23:40:00,
2013-05-05 19:45:00,51.1,51.1,29.86,East,90,2.3,2.3,100,0.00,OVC,,0.37,WeatherDisplay:10.37,2013-05-05 23:45:00,
2013-05-05 19:48:00,50.9,40.7,29.83,NE,49,1.0,2.0,68,0.04,CLR,CLR,0.04,WeatherDisplay:10.37,2013-05-05 23:48:00,
2013-05-05 19:50:00,50.9,50.9,29.83,East,90,2.3,2.3,100,0.00,OVC,,0.37,WeatherDisplay:10.37,2013-05-05 23:50:00,
2013-05-05 19:55:00,50.9,50.9,29.83,NE,45,3.5,3.5,100,0.00,OVC,,0.37,WeatherDisplay:10.37,2013-05-05 23:55:00,
2013-05-05 20:00:00,50.7,50.7,29.83,NW,315,3.5,3.5,100,0.00,OVC,,0.37,WeatherDisplay:10.37,2013-05-06 00:00:00,
2013-05-05 20:03:00,51.1,41.6,29.83,ENE,68,1.0,4.0,70,0.04,CLR,CLR,0.04,WeatherDisplay:10.37,2013-05-06 00:03:00,
2013-05-05 20:05:00,50.7,50.7,29.86,NE,45,3.5,3.5,100,0.00,OVC,,0.37,WeatherDisplay:10.37,2013-05-06 00:05:00,
2013-05-05 20:10:00,50.5,50.5,29.86,East,90,2.3,2.3,100,0.00,OVC,,0.37,WeatherDisplay:10.37,2013-05-06 00:10:00,
2013-05-05 20:15:00,50.5,50.5,29.86,East,90,2.3,2.3,100,0.00,OVC,,0.37,WeatherDisplay:10.37,2013-05-06 00:15:00,
2013-05-05 20:18:00,51.3,42.5,29.83,East,97,1.0,3.0,72,0.00,CLR,CLR,0.04,WeatherDisplay:10.37,2013-05-06 00:18:00,
2013-05-05 20:20:00,50.5,50.5,29.86,East,90,3.6,3.6,100,0.00,OVC,,0.37,WeatherDisplay:10.37,2013-05-06 00:20:00,
2013-05-05 20:25:00,50.5,50.5,29.86,SE,135,2.3,2.3,100,0.00,OVC,,0.37,WeatherDisplay:10.37,2013-05-06 00:25:00,
2013-05-05 20:30:00,50.5,50.5,29.86,SE,135,2.6,2.6,100,0.00,OVC,,0.37,WeatherDisplay:10.37,2013-05-06 00:30:00,
2013-05-05 20:33:00,51.4,43.4,29.83,ENE,68,1.0,4.0,74,0.00,CLR,CLR,0.04,WeatherDisplay:10.37,2013-05-06 00:33:00,
2013-05-05 20:35:00,50.5,50.5,29.86,NNW,338,4.6,4.6,100,0.00,OVC,,0.37,WeatherDisplay:10.37,2013-05-06 00:35:00,
2013-05-05 20:40:00,50.4,50.4,29.86,SE,135,2.3,2.3,100,0.00,OVC,,0.37,WeatherDisplay:10.37,2013-05-06 00:40:00,
2013-05-05 20:45:00,50.5,50.5,29.86,NE,45,3.5,3.5,100,0.00,OVC,,0.37,WeatherDisplay:10.37,2013-05-06 00:45:00,
2013-05-05 20:48:00,51.6,44.3,29.83,NE,34,1.0,4.0,76,0.00,CLR,CLR,0.04,WeatherDisplay:10.37,2013-05-06 00:48:00,
2013-05-05 20:50:00,50.5,50.5,29.86,SSW,202,1.2,0.0,100,0.00,BKN,,0.37,WeatherDisplay:10.37,2013-05-06 00:50:00,
2013-05-05 20:55:00,50.5,50.5,29.86,NE,45,3.5,3.5,100,0.00,BKN,,0.37,WeatherDisplay:10.37,2013-05-06 00:55:00,
2013-05-05 21:01:00,50.5,50.5,29.86,East,90,3.5,3.5,100,0.00,BKN,,0.37,WeatherDisplay:10.37,2013-05-06 01:01:00,
2013-05-05 21:03:00,52.0,45.7,29.80,East,95,3.0,8.0,79,0.00,CLR,CLR,0.04,WeatherDisplay:10.37,2013-05-06 01:03:00,
2013-05-05 21:06:00,50.4,50.4,29.86,East,90,2.6,2.6,100,0.00,BKN,,0.37,WeatherDisplay:10.37,2013-05-06 01:06:00,
2013-05-05 21:11:00,50.5,50.5,29.86,SE,135,3.5,3.5,100,0.00,BKN,,0.37,WeatherDisplay:10.37,2013-05-06 01:11:00,
2013-05-05 21:16:00,50.5,50.5,29.86,East,90,2.3,2.3,100,0.00,OVC,,0.37,WeatherDisplay:10.37,2013-05-06 01:16:00,
2013-05-05 21:18:00,52.0,45.3,29.80,East,90,1.0,4.0,78,0.00,CLR,CLR,0.04,WeatherDisplay:10.37,2013-05-06 01:18:00,
2013-05-05 21:21:00,50.5,50.5,29.86,East,90,2.3,2.3,100,0.00,OVC,,0.37,WeatherDisplay:10.37,2013-05-06 01:21:00,
2013-05-05 21:26:00,50.5,50.5,29.86,East,90,2.4,2.4,100,0.00,OVC,,0.37,WeatherDisplay:10.37,2013-05-06 01:26:00,
2013-05-05 21:31:00,50.5,50.5,29.86,East,90,2.3,2.3,100,0.00,OVC,,0.37,WeatherDisplay:10.37,2013-05-06 01:31:00,
2013-05-05 21:33:00,52.3,46.4,29.80,ESE,106,0.0,3.0,80,0.00,CLR,CLR,0.04,WeatherDisplay:10.37,2013-05-06 01:33:00,
2013-05-05 21:36:00,50.5,50.5,29.86,NE,45,2.3,2.3,100,0.00,OVC,,0.37,WeatherDisplay:10.37,2013-05-06 01:36:00,
2013-05-05 21:41:00,50.5,50.5,29.86,NNW,338,1.2,1.2,100,0.00,OVC,,0.37,WeatherDisplay:10.37,2013-05-06 01:41:00,
2013-05-05 21:46:00,50.5,50.5,29.86,East,90,2.3,2.3,100,0.00,OVC,,0.37,WeatherDisplay:10.37,2013-05-06 01:46:00,
2013-05-05 21:48:00,52.5,46.5,29.80,NE,51,1.0,5.0,80,0.00,CLR,CLR,0.04,WeatherDisplay:10.37,2013-05-06 01:48:00,
2013-05-05 21:51:00,50.5,50.5,29.86,NE,45,2.3,2.3,100,0.00,OVC,,0.37,WeatherDisplay:10.37,2013-05-06 01:51:00,
2013-05-05 21:56:00,50.5,50.5,29.86,NW,315,1.2,1.2,100,0.00,OVC,,0.37,WeatherDisplay:10.37,2013-05-06 01:56:00,
2013-05-05 22:01:00,50.5,50.5,29.86,NE,45,2.3,2.3,100,0.00,OVC,,0.37,WeatherDisplay:10.37,2013-05-06 02:01:00,
2013-05-05 22:03:00,52.5,46.5,29.80,ENE,61,2.0,4.0,80,0.00,CLR,CLR,0.04,WeatherDisplay:10.37,2013-05-06 02:03:00,
2013-05-05 22:06:00,50.5,50.5,29.86,East,90,1.2,0.0,100,0.00,OVC,,0.37,WeatherDisplay:10.37,2013-05-06 02:06:00,
2013-05-05 22:11:00,50.5,50.5,29.86,South,180,1.2,0.0,100,0.00,OVC,,0.37,WeatherDisplay:10.37,2013-05-06 02:11:00,
2013-05-05 22:16:00,50.5,50.5,29.86,North,0,2.3,2.3,100,0.00,OVC,,0.37,WeatherDisplay:10.37,2013-05-06 02:16:00,
2013-05-05 22:18:00,52.7,46.4,29.77,East,92,1.0,3.0,79,0.00,CLR,CLR,0.04,WeatherDisplay:10.37,2013-05-06 02:18:00,
2013-05-05 22:21:00,50.5,50.5,29.86,NE,45,3.5,3.5,100,0.00,OVC,,0.37,WeatherDisplay:10.37,2013-05-06 02:21:00,
2013-05-05 22:26:00,50.7,50.7,29.86,West,270,0.0,0.0,100,0.00,OVC,,0.37,WeatherDisplay:10.37,2013-05-06 02:26:00,
2013-05-05 22:31:00,50.7,50.7,29.86,North,0,2.3,2.3,100,0.00,OVC,,0.37,WeatherDisplay:10.37,2013-05-06 02:31:00,
2013-05-05 22:33:00,52.7,46.7,29.80,ENE,68,1.0,3.0,80,0.00,CLR,CLR,0.04,WeatherDisplay:10.37,2013-05-06 02:33:00,
2013-05-05 22:35:00,50.7,50.7,29.86,East,90,3.5,3.5,100,0.00,OVC,,0.37,WeatherDisplay:10.37,2013-05-06 02:35:00,
2013-05-05 22:40:00,50.7,50.7,29.86,NE,45,1.2,0.0,100,0.00,OVC,,0.37,WeatherDisplay:10.37,2013-05-06 02:40:00,
2013-05-05 22:45:00,50.7,50.7,29.86,East,90,4.6,4.6,100,0.00,OVC,,0.37,WeatherDisplay:10.37,2013-05-06 02:45:00,
2013-05-05 22:48:00,52.9,46.9,29.77,NE,50,3.0,6.0,80,0.00,CLR,CLR,0.04,WeatherDisplay:10.37,2013-05-06 02:48:00,
2013-05-05 22:50:00,50.7,50.7,29.86,SSE,158,2.3,2.3,100,0.00,OVC,,0.37,WeatherDisplay:10.37,2013-05-06 02:50:00,
2013-05-05 22:55:00,50.7,50.7,29.86,North,0,2.3,2.3,100,0.00,OVC,,0.37,WeatherDisplay:10.37,2013-05-06 02:55:00,
2013-05-05 23:00:00,50.7,50.7,29.86,South,180,0.0,0.0,100,0.00,RA,,0.00,WeatherDisplay:10.37,2013-05-06 03:00:00,
2013-05-05 23:03:00,52.9,46.9,29.80,East,92,1.0,4.0,80,0.00,CLR,CLR,0.04,WeatherDisplay:10.37,2013-05-06 03:03:00,
2013-05-05 23:05:00,50.7,50.7,29.86,ENE,68,1.2,0.0,100,0.00,RA,,0.00,WeatherDisplay:10.37,2013-05-06 03:05:00,
2013-05-05 23:10:00,50.7,50.7,29.86,East,90,2.3,2.3,100,0.00,OVC,,0.00,WeatherDisplay:10.37,2013-05-06 03:10:00,
2013-05-05 23:15:00,50.7,50.7,29.86,NE,45,2.3,2.3,100,0.00,OVC,,0.00,WeatherDisplay:10.37,2013-05-06 03:15:00,
2013-05-05 23:18:00,53.1,47.4,29.80,East,90,1.0,3.0,81,0.00,CLR,CLR,0.04,WeatherDisplay:10.37,2013-05-06 03:18:00,
2013-05-05 23:20:00,50.5,50.5,29.83,NNE,22,2.3,2.3,100,0.00,OVC,,0.00,WeatherDisplay:10.37,2013-05-06 03:20:00,
2013-05-05 23:25:00,50.5,50.5,29.83,SE,135,2.3,2.3,100,0.00,OVC,,0.00,WeatherDisplay:10.37,2013-05-06 03:25:00,
2013-05-05 23:30:00,50.5,50.5,29.83,NE,45,3.5,3.5,100,0.00,-RA,,0.00,WeatherDisplay:10.37,2013-05-06 03:30:00,
2013-05-05 23:33:00,53.1,47.4,29.80,ESE,111,1.0,6.0,81,0.00,CLR,CLR,0.04,WeatherDisplay:10.37,2013-05-06 03:33:00,
2013-05-05 23:35:00,50.5,50.5,29.83,SE,135,2.3,2.3,100,0.00,-RA,,0.00,WeatherDisplay:10.37,2013-05-06 03:35:00,
2013-05-05 23:48:00,53.1,47.4,29.77,ENE,65,1.0,3.0,81,0.00,CLR,CLR,0.04,WeatherDisplay:10.37,2013-05-06 03:48:00,